Terminal Aerodrome Forecast
Issued by NWS

Home | Current Version | Previous Version | Text Only | Print | Product List | Glossary On
Versions: 1 2 3 4 5 6 7 8 9 10 11 12 13 14 15
000
FTUS43 KABR 231120
TAFPIR
TAF
KPIR 231120Z 2312/2412 01005KT P6SM SKC
     FM240200 07006KT P6SM FEW250
     FM240600 12008KT P6SM FEW250=

USA.gov is the U.S. government's official web portal to all federal, state and local government web resources and services.